Carson Sink, Nevada Weather observations

Data are for observation ending at time listed.
 Day   Time    Ave.   Ave.  Ave.  Vector   Max.   Stn.    Total    Solar   Ave.  
  of    of     Air    Rel.  Wind   Wind    Wind   Baro.  Precip.   Rad.    Soil  
Year   Day     Temp.  Hum.  Speed  Dir.    Gust   Pres.                    Temp. 
2016   (PST)    F      %     mph   deg.    mph     mb.     in.     W/m2     F   
------------------------------------------------------------------------------
 121    7:30   48.5    68   12.1    26     18.1   883.4    0.00     319     55.6
 121    7:40   48.3    65   13.3     6     22.6   883.4    0.00     352     55.6
 121    7:50   47.9    64   15.3   357     21.8   883.5    0.00     170     55.7
 121    8:00   47.4    64   17.7   352     22.4   883.5    0.00     171     55.8
 121    8:10   47.9    64   16.7   358     23.7   883.4    0.00     181     55.9
 121    8:20   48.8    61   15.4    14     19.4   883.4    0.00     206     56.0
 121    8:30   49.3    57   13.8    35     20.1   883.3    0.00     185     56.1
 121    8:40   49.6    57   14.8    37     20.0   883.3    0.00     225     56.2
 121    8:50   50.0    56   15.3    35     20.2   883.3    0.00     239     56.3
 121    9:00   50.4    55   12.9    37     17.5   883.3    0.00     448     56.3
 121    9:10   50.6    54   15.4    40     21.2   883.3    0.00     314     56.4
 121    9:20   50.1    55   14.1    64     19.1   883.3    0.00     292     56.4
 121    9:30   50.8    53   12.6    53     16.2   883.3    0.00     266     56.5
 121    9:40   50.9    53   13.5    60     17.8   883.2    0.00     374     56.6
 121    9:50   51.8    51   11.3    54     16.9   883.2    0.00     468     56.7
 121   10:00   51.8    50   13.8    52     18.3   883.2    0.00     309     56.8
 121   10:10   52.1    47   13.6    23     23.1   883.3    0.00     300     56.9
 121   10:20   52.4    46   11.7    33     18.3   883.3    0.00     301     57.0
 121   10:30   52.6    46   12.8    36     18.6   883.4    0.00     295     57.1
 121   10:40   52.8    45   10.7    31     17.5   883.4    0.00     388     57.3
 121   10:50   53.6    44   11.7    54     24.3   883.3    0.00     547     57.4
 121   11:00   54.2    41   15.5    52     22.2   883.2    0.00     435     57.5
 121   11:10   54.5    42   16.8    64     24.9   883.1    0.00     536     57.6
 121   11:20   55.4    40   15.7    61     23.4   883.1    0.00     828     57.8
 121   11:30   55.4    40   16.5    63     23.5   883.0    0.00     826     58.0
 121   11:40   55.6    40   15.8    62     23.2   882.9    0.00     466     58.1
 121   11:50   55.4    39   12.0    39     21.7   883.0    0.00     413     58.4
 121   12:00   55.5    39   12.1    63     17.3   882.9    0.00     372     58.6
 121   12:10   56.0    38   12.5    44     16.7   882.9    0.00     380     58.9
 121   12:20   56.1    38   10.2    48     16.5   882.8    0.00     483     59.1
 121   12:30   56.7    37   14.6    22     23.3   882.8    0.00     350     59.3
 121   12:40   56.9    37   11.4    11     18.0   882.7    0.00     692     59.5
 121   12:50   58.3    34   14.8    44     20.5   882.6    0.00     808     59.7
 121   13:00   58.2    34   13.5    42     21.3   882.6    0.00     353     59.9
 121   13:10   58.3    34   14.0    42     20.5   882.6    0.00     744     60.1
 121   13:20   59.0    33   12.3    17     20.1   882.6    0.00     581     60.4
 121   13:30   58.7    33   12.4    52     19.6   882.5    0.00     474     60.6
 121   13:40   58.7    33    8.7    49     15.5   882.5    0.00     590     60.8
 121   13:50   59.6    31   13.3    43     21.7   882.4    0.00     653     61.0
 121   14:00   60.1    30   11.1    42     18.6   882.3    0.00     682     61.3
 121   14:10   60.3    30   13.8    68     21.8   882.1    0.00     372     61.5
 121   14:20   60.2    30   11.8    40     17.7   882.2    0.00     601     61.7
 121   14:30   60.9    29   16.7    27     25.2   882.1    0.00     472     61.8
 121   14:40   60.9    29   15.2    34     26.4   882.0    0.00     380     62.0
 121   14:50   60.7    30   15.2    34     21.5   882.0    0.00     466     62.1
 121   15:00   60.7    29   15.2    15     23.8   882.0    0.00     291     62.3
 121   15:10   60.9    28   15.6     4     27.0   882.0    0.00     444     62.4
 121   15:20   61.1    28   17.3     5     26.2   882.0    0.00     292     62.6
 121   15:30   61.2    28   13.9    18     20.3   882.0    0.00     343     62.7
 121   15:40   61.5    28   14.8    23     19.7   881.9    0.00     385     62.8
 121   15:50   61.9    26   15.9    13     23.6   881.9    0.00     600     62.9
 121   16:00   62.2    26   13.9    12     23.5   881.8    0.00     441     63.0
 121   16:10   61.7    27   15.0    13     19.9   881.9    0.00     194     63.1
 121   16:20   61.7    27   11.7    23     14.6   881.8    0.00     500     63.2
 121   16:30  999.0   999  999.0   999    999.0   999.0   999.00     999    999.0
 121   16:40  999.0   999  999.0   999    999.0   999.0   999.00     999    999.0
 121   16:50  999.0   999  999.0   999    999.0   999.0   999.00     999    999.0
 121   17:00  999.0   999  999.0   999    999.0   999.0   999.00     999    999.0
 121   17:10  999.0   999  999.0   999    999.0   999.0   999.00     999    999.0
 121   17:20  999.0   999  999.0   999    999.0   999.0   999.00     999    999.0
 121   17:30  999.0   999  999.0   999    999.0   999.0   999.00     999    999.0
 121   17:40  999.0   999  999.0   999    999.0   999.0   999.00     999    999.0
 121   17:50  999.0   999  999.0   999    999.0   999.0   999.00     999    999.0
 121   18:00  999.0   999  999.0   999    999.0   999.0   999.00     999    999.0
 121   18:10  999.0   999  999.0   999    999.0   999.0   999.00     999    999.0
 121   18:20  999.0   999  999.0   999    999.0   999.0   999.00     999    999.0
 121   18:30  999.0   999  999.0   999    999.0   999.0   999.00     999    999.0
 121   18:40  999.0   999  999.0   999    999.0   999.0   999.00     999    999.0
 121   18:50  999.0   999  999.0   999    999.0   999.0   999.00     999    999.0
 121   19:00  999.0   999  999.0   999    999.0   999.0   999.00     999    999.0
 121   19:10  999.0   999  999.0   999    999.0   999.0   999.00     999    999.0
 121   19:20  999.0   999  999.0   999    999.0   999.0   999.00     999    999.0
 121   19:30  999.0   999  999.0   999    999.0   999.0   999.00     999    999.0
 121   19:40  999.0   999  999.0   999    999.0   999.0   999.00     999    999.0
 121   19:50  999.0   999  999.0   999    999.0   999.0   999.00     999    999.0
 121   20:00  999.0   999  999.0   999    999.0   999.0   999.00     999    999.0
 121   20:10  999.0   999  999.0   999    999.0   999.0   999.00     999    999.0
 121   20:20  999.0   999  999.0   999    999.0   999.0   999.00     999    999.0
 121   20:30   54.7    41    6.9    39      9.9   882.8    0.00       0     62.2
 121   20:40   53.9    42    7.6    48      8.8   882.9    0.00       0     62.0
 121   20:50   53.8    42    9.2    39     11.8   883.0    0.00       0     61.9
 121   21:00   54.0    40    9.9    39     12.3   883.0    0.00       0     61.7
 121   21:10   53.1    42    8.2    37     10.2   883.1    0.00       0     61.6
 121   21:20  999.0   999  999.0   999    999.0   999.0   999.00     999    999.0
 121   21:30   51.9    45    7.4    16      8.3   883.1    0.00       0     61.2
 121   21:40   52.0    46    6.9    29      8.2   883.0    0.00       0     61.0
 121   21:50   51.7    48    6.2    39      7.1   883.1    0.00       0     60.9
 121   22:00   51.2    49    5.8    46      6.9   883.0    0.00       0     60.7
 121   22:10   50.9    50    6.2    29      7.2   883.1    0.00       0     60.5
 121   22:20   50.6    51    6.3    52      7.9   883.0    0.00       0     60.4
 121   22:30   50.2    53    8.0    53     10.1   883.0    0.00       0     60.2
 121   22:40   50.0    54    9.0    51     10.2   883.1    0.00       0     60.1
 121   22:50   50.0    54    8.4    43      9.6   883.1    0.00       0     59.9
 121   23:00   49.9    55    7.9    31      9.2   883.2    0.00       0     59.7
 121   23:10   49.3    56    7.9    29      9.0   883.2    0.00       0     59.6
 121   23:20   48.5    57    7.9    25      9.6   883.2    0.00       0     59.4
 121   23:30   48.2    56    8.9    22     10.7   883.2    0.00       0     59.3
 121   23:40   46.9    57    7.8    30      9.6   883.2    0.00       0     59.1
 121   23:50   47.2    57    7.5    40      8.6   883.2    0.00       0     58.9
 122    0:00   47.6    56    8.6    34     10.4   883.1    0.00       0     58.8
 122    0:10   47.3    56    8.1    50     10.4   883.0    0.00       0     58.7
 122    0:20   46.4    58    7.6    50      9.2   882.9    0.00       0     58.5
 122    0:30   46.3    58    8.4    51      9.8   882.8    0.00       0     58.4
 122    0:40   46.2    59    8.2    49      9.3   882.7    0.00       0     58.2
 122    0:50   46.4    59    7.7    42      9.1   882.6    0.00       0     58.0
 122    1:00   46.5    60    7.0    48      7.7   882.6    0.00       0     57.9
 122    1:10   45.8    61    5.9    55      7.0   882.6    0.00       0     57.8
 122    1:20   45.2    62    6.4    55      7.3   882.6    0.00       0     57.6
 122    1:30   45.1    62    7.7    42      9.3   882.6    0.00       0     57.5
 122    1:40   45.4    62    8.4    38      9.5   882.6    0.00       0     57.4
 122    1:50   45.2    62    7.7    42      9.1   882.6    0.00       0     57.2
 122    2:00   44.5    63    7.3    48      8.5   882.5    0.00       0     57.1
 122    2:10   44.4    62    6.9    58      8.0   882.5    0.00       0     56.9
 122    2:20   44.2    62    7.0    53      8.4   882.5    0.00       0     56.8
 122    2:30   43.8    63    4.1    19      6.5   882.5    0.00       0     56.7
 122    2:40   42.9    64    4.5   338      7.6   882.5    0.00       0     56.5
 122    2:50   43.6    63    4.3    28      7.7   882.6    0.00       0     56.4
 122    3:00   43.9    64    4.3    29      5.9   882.6    0.00       0     56.2
 122    3:10   43.1    65    5.5    35      8.3   882.6    0.00       0     56.1
 122    3:20   43.9    64    6.4    40      7.7   882.5    0.00       0     56.0
 122    3:30   43.5    64    7.3    33      8.0   882.6    0.00       0     55.9
 122    3:40   43.1    65    7.5    25      9.8   882.5    0.00       0     55.7
 122    3:50   43.7    64    9.5    31     12.5   882.5    0.00       0     55.6
 122    4:00   44.7    63   10.7    38     12.7   882.5    0.00       0     55.5
 122    4:10   44.1    63   10.3    38     11.3   882.4    0.00       0     55.4
 122    4:20   43.9    64   10.6    43     12.6   882.3    0.00       0     55.3
 122    4:30   43.3    64    9.6    40     11.0   882.3    0.00       0     55.1
 122    4:40   42.0    66    8.2    33     10.2   882.4    0.00       0     55.0
 122    4:50   41.5    67    8.8    32     10.2   882.6    0.00       1     54.9
 122    5:00   41.4    67    7.8    23      9.3   882.6    0.00       4     54.8
 122    5:10   40.9    68    6.4    20      8.0   882.7    0.00      11     54.7
 122    5:20   41.1    68    7.9    32      9.1   882.7    0.00      45     54.6
 122    5:30   41.9    68    8.3    36      9.6   882.8    0.00      75     54.5
 122    5:40   42.6    67    8.0    29      9.3   882.8    0.00     107     54.4
 122    5:50   43.3    66    7.9    15     10.0   882.8    0.00     137     54.3
 122    6:00   43.5    67    9.7    28     11.8   882.9    0.00     168     54.2
 122    6:10   44.4    66    9.6    35     11.0   883.0    0.00     203     54.1
 122    6:20   45.2    65    9.1    37     10.5   883.0    0.00     237     54.0
 122    6:30   47.2    62   12.6    51     17.6   883.0    0.00     267     54.0
 122    6:40   48.4    59   12.6    52     15.9   883.1    0.00     300     53.9
 122    6:50   49.1    58   12.3    40     17.2   883.1    0.00     336     53.9
 122    7:00   50.0    56   14.2    45     17.2   883.1    0.00     370     53.9
 122    7:10   50.6    53   16.5    49     20.2   883.0    0.00     404     53.9
 122    7:20   51.0    51   17.5    49     20.8   883.0    0.00     437     53.9

Return to Carson Sink graphs page.


Western Regional Climate Center,wrcc@dri.edu